createdAt,value
2018-06-27T00:00:52.452Z,75.31
2018-06-27T00:01:52.447Z,75.15
2018-06-27T00:02:52.446Z,75.60
2018-06-27T00:03:52.555Z,75.79
2018-06-27T00:04:52.485Z,75.70
2018-06-27T00:05:52.491Z,75.79
2018-06-27T00:06:52.494Z,75.89
2018-06-27T00:07:52.549Z,76.07
2018-06-27T00:08:53.491Z,75.60
2018-06-27T00:09:52.587Z,75.60
2018-06-27T00:10:52.547Z,75.50
2018-06-27T00:11:52.567Z,76.07
2018-06-27T00:12:52.587Z,76.07
2018-06-27T00:13:52.595Z,76.07
2018-06-27T00:14:52.672Z,75.79
2018-06-27T00:15:52.691Z,75.89
2018-06-27T00:16:52.635Z,75.79
2018-06-27T00:17:52.659Z,76.07
2018-06-27T00:18:52.636Z,75.89
2018-06-27T00:19:52.645Z,76.17
2018-06-27T00:20:52.646Z,76.27
2018-06-27T00:21:52.677Z,76.17
2018-06-27T00:22:52.707Z,76.07
2018-06-27T00:23:52.736Z,76.17
2018-06-27T00:24:52.712Z,76.17
2018-06-27T00:25:52.721Z,75.89
2018-06-27T00:26:52.742Z,76.37
2018-06-27T00:27:52.728Z,75.98
2018-06-27T00:28:52.844Z,76.07
2018-06-27T00:29:52.759Z,76.65
2018-06-27T00:30:52.780Z,76.07
2018-06-27T00:31:52.862Z,76.56
2018-06-27T00:32:52.789Z,76.07
2018-06-27T00:33:52.886Z,76.17
2018-06-27T00:34:52.835Z,75.98
2018-06-27T00:35:52.820Z,76.56
2018-06-27T00:36:52.839Z,76.27
2018-06-27T00:37:52.877Z,76.37
2018-06-27T00:38:52.914Z,76.65
2018-06-27T00:39:52.868Z,76.27
2018-06-27T00:40:52.870Z,76.46
2018-06-27T00:41:52.885Z,76.07
2018-06-27T00:42:52.900Z,76.65
2018-06-27T00:43:52.955Z,76.37
2018-06-27T00:44:52.969Z,76.84
2018-06-27T00:45:52.950Z,76.84
2018-06-27T00:46:52.945Z,76.46
2018-06-27T00:47:52.967Z,76.27
2018-06-27T00:48:53.012Z,76.27
2018-06-27T00:49:53.024Z,76.65
2018-06-27T00:50:53.004Z,76.42
2018-06-27T00:51:53.025Z,76.46
2018-06-27T00:52:53.026Z,76.46
2018-06-27T00:53:53.032Z,76.07
2018-06-27T00:54:53.081Z,75.98
2018-06-27T00:55:53.131Z,76.46
2018-06-27T00:56:53.164Z,76.46
2018-06-27T00:57:53.069Z,76.37
2018-06-27T00:58:53.092Z,76.46
2018-06-27T00:59:53.101Z,76.94
2018-06-27T01:00:53.117Z,76.37
2018-06-27T01:01:53.121Z,76.75
2018-06-27T01:02:53.177Z,76.81
2018-06-27T01:03:53.150Z,77.00
2018-06-27T01:04:53.149Z,76.62
2018-06-27T01:05:53.275Z,77.00
2018-06-27T01:06:53.210Z,76.62
2018-06-27T01:07:53.191Z,76.75
2018-06-27T01:08:53.276Z,76.94
2018-06-27T01:09:53.218Z,76.62
2018-06-27T01:10:53.290Z,76.32
2018-06-27T01:11:53.263Z,76.65
2018-06-27T01:12:53.503Z,76.62
2018-06-27T01:13:53.302Z,77.38
2018-06-27T01:14:53.366Z,77.38
2018-06-27T01:15:53.309Z,77.58
2018-06-27T01:16:53.296Z,77.67
2018-06-27T01:17:53.435Z,77.00
2018-06-27T01:18:53.345Z,77.09
2018-06-27T01:19:53.321Z,77.09
2018-06-27T01:20:53.378Z,77.29
2018-06-27T01:21:53.362Z,77.09
2018-06-27T01:22:53.354Z,77.09
2018-06-27T01:23:53.362Z,77.48
2018-06-27T01:24:53.390Z,77.29
2018-06-27T01:25:53.457Z,77.29
2018-06-27T01:26:53.439Z,77.29
2018-06-27T01:27:53.418Z,77.19
2018-06-27T01:28:53.429Z,77.09
2018-06-27T01:29:53.432Z,77.19
2018-06-27T01:30:53.441Z,77.09
2018-06-27T01:31:53.486Z,77.19
2018-06-27T01:32:53.491Z,77.29
2018-06-27T01:33:53.626Z,77.48
2018-06-27T01:34:53.512Z,77.38
2018-06-27T01:35:53.514Z,77.38
2018-06-27T01:36:53.544Z,77.48
2018-06-27T01:37:53.585Z,77.09
2018-06-27T01:38:53.547Z,77.95
2018-06-27T01:39:53.572Z,77.92
2018-06-27T01:40:53.568Z,77.92
2018-06-27T01:41:53.609Z,77.86
2018-06-27T01:42:53.581Z,78.40
2018-06-27T01:43:53.623Z,78.78
2018-06-27T01:44:53.640Z,78.15
2018-06-27T01:45:53.634Z,77.86
2018-06-27T01:46:53.627Z,77.67
2018-06-27T01:47:53.648Z,77.92
2018-06-27T01:48:53.694Z,77.67
2018-06-27T01:49:53.670Z,77.00
2018-06-27T01:50:53.678Z,77.95
2018-06-27T01:51:53.691Z,77.19
2018-06-27T01:52:53.726Z,77.58
2018-06-27T01:53:53.716Z,77.44
2018-06-27T01:54:53.737Z,77.58
2018-06-27T01:55:53.774Z,77.09
2018-06-27T01:56:53.757Z,77.29
2018-06-27T01:57:53.758Z,77.09
2018-06-27T01:58:53.768Z,77.29
2018-06-27T01:59:53.795Z,77.58
2018-06-27T02:00:53.833Z,77.09
2018-06-27T02:01:53.809Z,77.29
2018-06-27T02:02:53.815Z,77.00
2018-06-27T02:03:53.846Z,77.34
2018-06-27T02:04:53.826Z,77.34
2018-06-27T02:05:53.914Z,77.82
2018-06-27T02:06:53.862Z,77.73
2018-06-27T02:07:53.863Z,78.20
2018-06-27T02:08:53.874Z,77.63
2018-06-27T02:09:53.902Z,77.82
2018-06-27T02:10:54.009Z,77.92
2018-06-27T02:11:53.960Z,77.82
2018-06-27T02:12:53.943Z,78.11
2018-06-27T02:13:53.944Z,77.92
2018-06-27T02:14:53.954Z,77.92
2018-06-27T02:15:53.955Z,77.34
2018-06-27T02:16:54.002Z,77.63
2018-06-27T02:17:53.977Z,78.11
2018-06-27T02:18:53.998Z,77.58
2018-06-27T02:19:53.995Z,77.19
2018-06-27T02:20:54.011Z,77.58
2018-06-27T02:21:54.058Z,77.86
2018-06-27T02:22:54.038Z,77.29
2018-06-27T02:23:54.065Z,77.58
2018-06-27T02:24:54.050Z,77.38
2018-06-27T02:25:54.058Z,77.19
2018-06-27T02:26:54.109Z,77.09
2018-06-27T02:27:54.105Z,77.09
2018-06-27T02:28:54.110Z,77.29
2018-06-27T02:29:54.119Z,77.09
2018-06-27T02:30:54.116Z,77.19
2018-06-27T02:31:54.179Z,77.09
2018-06-27T02:32:54.152Z,77.38
2018-06-27T02:33:54.163Z,77.09
2018-06-27T02:34:54.205Z,77.38
2018-06-27T02:35:54.209Z,77.29
2018-06-27T02:36:54.189Z,77.09
2018-06-27T02:37:54.209Z,77.19
2018-06-27T02:38:54.211Z,77.09
2018-06-27T02:39:54.224Z,77.00
2018-06-27T02:40:54.286Z,77.00
2018-06-27T02:41:54.257Z,77.38
2018-06-27T02:42:54.279Z,77.19
2018-06-27T02:43:54.298Z,76.90
2018-06-27T02:44:54.274Z,77.29
2018-06-27T02:45:54.334Z,77.29
2018-06-27T02:46:54.357Z,77.09
2018-06-27T02:47:54.306Z,76.81
2018-06-27T02:48:54.326Z,76.90
2018-06-27T02:49:54.419Z,77.00
2018-06-27T02:50:54.362Z,76.62
2018-06-27T02:51:54.387Z,77.00
2018-06-27T02:52:54.429Z,77.00
2018-06-27T02:53:54.377Z,76.90
2018-06-27T02:54:54.397Z,77.19
2018-06-27T02:55:54.421Z,76.81
2018-06-27T02:56:54.458Z,76.90
2018-06-27T02:57:54.464Z,77.13
2018-06-27T02:58:54.439Z,77.13
2018-06-27T02:59:54.460Z,76.46
2018-06-27T03:00:54.474Z,77.00
2018-06-27T03:01:54.477Z,76.27
2018-06-27T03:02:54.515Z,76.46
2018-06-27T03:03:54.570Z,76.37
2018-06-27T03:04:54.506Z,76.46
2018-06-27T03:05:54.528Z,76.81
2018-06-27T03:06:54.530Z,76.71
2018-06-27T03:07:54.548Z,76.14
2018-06-27T03:08:54.596Z,76.46
2018-06-27T03:09:54.561Z,76.52
2018-06-27T03:10:54.581Z,76.32
2018-06-27T03:11:54.590Z,76.94
2018-06-27T03:12:54.590Z,76.84
2018-06-27T03:13:54.647Z,76.75
2018-06-27T03:14:54.639Z,76.62
2018-06-27T03:15:54.639Z,76.81
2018-06-27T03:16:54.635Z,77.09
2018-06-27T03:17:54.654Z,76.90
2018-06-27T03:18:54.715Z,76.81
2018-06-27T03:19:54.674Z,76.27
2018-06-27T03:20:54.706Z,76.81
2018-06-27T03:21:54.725Z,77.13
2018-06-27T03:22:54.698Z,76.32
2018-06-27T03:23:54.762Z,76.46
2018-06-27T03:24:54.730Z,76.46
2018-06-27T03:25:54.893Z,76.37
2018-06-27T03:26:54.743Z,76.32
2018-06-27T03:27:54.767Z,76.32
2018-06-27T03:28:54.833Z,76.46
2018-06-27T03:29:54.835Z,76.75
2018-06-27T03:30:54.792Z,76.17
2018-06-27T03:31:54.818Z,76.46
2018-06-27T03:32:54.828Z,76.37
2018-06-27T03:33:54.895Z,76.42
2018-06-27T03:34:54.839Z,76.42
2018-06-27T03:35:54.871Z,76.46
2018-06-27T03:36:55.375Z,76.23
2018-06-27T03:37:56.363Z,76.75
2018-06-27T03:38:57.966Z,76.37
2018-06-27T03:39:54.946Z,76.46
2018-06-27T03:40:54.915Z,76.07
2018-06-27T03:41:54.919Z,76.65
2018-06-27T03:42:54.943Z,76.42
2018-06-27T03:43:54.968Z,76.56
2018-06-27T03:44:54.984Z,76.37
2018-06-27T03:45:54.980Z,76.37
2018-06-27T03:46:54.993Z,75.89
2018-06-27T03:47:55.019Z,76.17
2018-06-27T03:48:55.040Z,76.07
2018-06-27T03:49:55.010Z,75.89
2018-06-27T03:50:55.075Z,76.07
2018-06-27T03:51:55.065Z,75.98
2018-06-27T03:52:55.053Z,75.98
2018-06-27T03:53:55.104Z,75.98
2018-06-27T03:54:55.078Z,75.89
2018-06-27T03:55:55.093Z,75.40
2018-06-27T03:56:55.089Z,75.89
2018-06-27T03:57:55.119Z,75.70
2018-06-27T03:58:55.210Z,75.63
2018-06-27T03:59:55.127Z,75.31
2018-06-27T04:00:55.134Z,75.25
2018-06-27T04:01:55.156Z,75.25
2018-06-27T04:02:55.205Z,75.45
2018-06-27T04:03:55.170Z,75.63
2018-06-27T04:04:55.245Z,74.77
2018-06-27T04:05:55.206Z,74.96
2018-06-27T04:06:55.209Z,75.06
2018-06-27T04:07:55.236Z,75.06
2018-06-27T04:08:55.247Z,75.15
2018-06-27T04:09:55.273Z,75.25
2018-06-27T04:10:55.252Z,75.06
2018-06-27T04:11:55.280Z,75.15
2018-06-27T04:12:55.424Z,75.06
2018-06-27T04:13:55.331Z,74.87
2018-06-27T04:14:55.303Z,74.96
2018-06-27T04:15:55.311Z,74.87
2018-06-27T04:16:55.324Z,74.19
2018-06-27T04:17:55.404Z,74.58
2018-06-27T04:18:55.392Z,74.33
2018-06-27T04:19:55.376Z,73.81
2018-06-27T04:20:55.385Z,74.23
2018-06-27T04:21:55.429Z,74.04
2018-06-27T04:22:55.434Z,73.37
2018-06-27T04:23:55.453Z,72.99
2018-06-27T04:24:55.549Z,73.08
2018-06-27T04:25:55.441Z,73.69
2018-06-27T04:26:55.476Z,72.92
2018-06-27T04:27:55.458Z,73.02
2018-06-27T04:28:55.506Z,72.83
2018-06-27T04:29:55.489Z,72.64
2018-06-27T04:30:55.503Z,72.25
2018-06-27T04:31:55.568Z,72.34
2018-06-27T04:32:55.517Z,71.58
2018-06-27T04:33:55.538Z,72.09
2018-06-27T04:34:55.579Z,71.91
2018-06-27T04:35:55.678Z,70.94
2018-06-27T04:36:55.570Z,71.17
2018-06-27T04:37:55.597Z,70.68
2018-06-27T04:38:55.592Z,69.53
2018-06-27T04:39:55.656Z,69.44
2018-06-27T04:40:55.627Z,69.53
2018-06-27T04:41:55.639Z,69.18
2018-06-27T04:42:55.643Z,68.60
2018-06-27T04:43:55.667Z,68.60
2018-06-27T04:44:55.737Z,68.03
2018-06-27T04:45:55.688Z,68.51
2018-06-27T04:46:55.721Z,67.58
2018-06-27T04:47:55.729Z,67.26
2018-06-27T04:48:55.725Z,67.58
2018-06-27T04:49:55.808Z,67.19
2018-06-27T04:50:55.814Z,66.42
2018-06-27T04:51:55.787Z,66.81
2018-06-27T04:52:55.807Z,66.27
2018-06-27T04:53:55.795Z,65.59
2018-06-27T04:54:55.953Z,65.78
2018-06-27T04:55:55.858Z,65.40
2018-06-27T04:56:55.849Z,65.59
2018-06-27T04:57:55.871Z,65.72
2018-06-27T04:58:55.986Z,65.24
2018-06-27T04:59:55.910Z,64.47
2018-06-27T05:00:55.895Z,64.66
2018-06-27T05:01:55.972Z,63.98
2018-06-27T05:02:55.930Z,64.76
2018-06-27T05:03:55.949Z,63.41
2018-06-27T05:04:55.967Z,62.93
2018-06-27T05:05:56.012Z,63.70
2018-06-27T05:06:56.041Z,63.44
2018-06-27T05:07:56.018Z,63.54
2018-06-27T05:08:56.014Z,62.57
2018-06-27T05:09:56.041Z,62.96
2018-06-27T05:10:56.057Z,62.57
2018-06-27T05:11:56.095Z,62.09
2018-06-27T05:12:56.144Z,61.16
2018-06-27T05:13:56.088Z,61.06
2018-06-27T05:14:56.110Z,61.06
2018-06-27T05:15:56.118Z,61.35
2018-06-27T05:16:56.153Z,61.19
2018-06-27T05:17:56.182Z,61.09
2018-06-27T05:18:56.191Z,60.31
2018-06-27T05:19:56.183Z,60.22
2018-06-27T05:20:56.196Z,58.00
2018-06-27T05:21:56.203Z,59.16
2018-06-27T05:22:56.230Z,59.38
2018-06-27T05:23:56.281Z,58.51
2018-06-27T05:24:56.249Z,57.26
2018-06-27T05:25:56.280Z,57.54
2018-06-27T05:26:56.272Z,56.80
2018-06-27T05:27:56.322Z,56.80
2018-06-27T05:28:56.339Z,56.61
2018-06-27T05:29:56.331Z,56.80
2018-06-27T05:30:56.348Z,56.15
2018-06-27T05:31:56.391Z,55.19
2018-06-27T05:32:56.372Z,54.99
2018-06-27T05:33:56.493Z,54.80
2018-06-27T05:34:56.445Z,54.80
2018-06-27T05:35:56.406Z,55.60
2018-06-27T05:36:56.425Z,55.02
2018-06-27T05:37:56.457Z,53.19
2018-06-27T05:38:56.478Z,52.77
2018-06-27T05:39:56.576Z,54.53
2018-06-27T05:40:56.501Z,54.08
2018-06-27T05:41:56.541Z,53.09
2018-06-27T05:42:56.552Z,53.19
2018-06-27T05:43:56.544Z,53.02
2018-06-27T05:44:56.595Z,52.34
2018-06-27T05:45:56.680Z,53.21
2018-06-27T05:46:56.616Z,53.21
2018-06-27T05:47:56.606Z,52.34
2018-06-27T05:48:56.634Z,53.59
2018-06-27T05:49:56.679Z,52.73
2018-06-27T05:50:56.773Z,53.21
2018-06-27T05:51:56.713Z,52.82
2018-06-27T05:52:56.732Z,52.41
2018-06-27T05:53:56.720Z,52.51
2018-06-27T05:54:56.745Z,53.25
2018-06-27T05:55:56.755Z,53.28
2018-06-27T05:56:56.806Z,53.16
2018-06-27T05:57:56.784Z,53.64
2018-06-27T05:58:56.868Z,53.64
2018-06-27T05:59:56.820Z,54.87
2018-06-27T06:00:56.847Z,55.52
2018-06-27T06:01:56.890Z,55.42
2018-06-27T06:02:56.889Z,56.39
2018-06-27T06:03:56.889Z,56.77
2018-06-27T06:04:56.902Z,56.16
2018-06-27T06:05:56.956Z,57.32
2018-06-27T06:06:56.969Z,57.04
2018-06-27T06:07:56.965Z,57.62
2018-06-27T06:08:56.960Z,57.52
2018-06-27T06:09:57.022Z,57.23
2018-06-27T06:10:57.036Z,58.45
2018-06-27T06:11:57.025Z,58.94
2018-06-27T06:12:57.031Z,58.94
2018-06-27T06:13:57.049Z,59.80
2018-06-27T06:14:57.054Z,59.23
2018-06-27T06:15:57.156Z,60.00
2018-06-27T06:16:57.109Z,59.42
2018-06-27T06:17:57.106Z,60.38
2018-06-27T06:18:57.126Z,60.74
2018-06-27T06:19:57.151Z,60.45
2018-06-27T06:20:57.182Z,61.03
2018-06-27T06:21:57.148Z,61.22
2018-06-27T06:22:57.176Z,61.32
2018-06-27T06:23:57.334Z,61.32
2018-06-27T06:24:57.186Z,61.58
2018-06-27T06:25:57.207Z,62.83
2018-06-27T06:26:57.256Z,62.93
2018-06-27T06:27:57.303Z,63.41
2018-06-27T06:28:57.328Z,63.02
2018-06-27T06:29:57.294Z,64.34
2018-06-27T06:30:57.277Z,64.15
2018-06-27T06:31:57.298Z,63.85
2018-06-27T06:32:57.328Z,64.43
2018-06-27T06:33:57.342Z,63.95
2018-06-27T06:34:57.375Z,63.85
2018-06-27T06:35:57.369Z,63.76
2018-06-27T06:36:57.358Z,64.25
2018-06-27T06:37:57.379Z,63.85
2018-06-27T06:38:57.421Z,64.34
2018-06-27T06:39:57.409Z,64.28
2018-06-27T06:40:57.445Z,64.28
2018-06-27T06:41:57.468Z,64.08
2018-06-27T06:42:57.450Z,64.18
2018-06-27T06:43:57.608Z,63.79
2018-06-27T06:44:57.502Z,63.79
2018-06-27T06:45:57.535Z,63.79
2018-06-27T06:46:57.532Z,63.12
2018-06-27T06:47:57.507Z,63.31
2018-06-27T06:48:57.536Z,62.83
2018-06-27T06:49:57.553Z,62.83
2018-06-27T06:50:57.641Z,63.02
2018-06-27T06:51:57.561Z,63.60
2018-06-27T06:52:57.571Z,63.70
2018-06-27T06:53:57.594Z,63.79
2018-06-27T06:54:57.607Z,62.83
2018-06-27T06:55:57.688Z,63.41
2018-06-27T06:56:57.690Z,63.70
2018-06-27T06:57:57.664Z,62.73
2018-06-27T06:58:57.655Z,62.06
2018-06-27T06:59:57.676Z,62.54
2018-06-27T07:00:57.730Z,63.02
2018-06-27T07:01:57.727Z,63.02
2018-06-27T07:02:57.718Z,62.83
2018-06-27T07:03:57.740Z,62.83
2018-06-27T07:04:57.802Z,62.83
2018-06-27T07:05:57.796Z,62.83
2018-06-27T07:06:57.770Z,63.79
2018-06-27T07:07:57.779Z,62.83
2018-06-27T07:08:57.885Z,63.60
2018-06-27T07:09:57.824Z,63.31
2018-06-27T07:10:57.962Z,64.28
2018-06-27T07:11:57.856Z,62.83
2018-06-27T07:12:57.867Z,62.83
2018-06-27T07:13:57.857Z,63.12
2018-06-27T07:14:57.879Z,62.93
2018-06-27T07:15:57.951Z,63.12
2018-06-27T07:16:57.916Z,62.83
2018-06-27T07:17:57.929Z,63.02
2018-06-27T07:18:57.945Z,62.54
2018-06-27T07:19:57.982Z,62.83
2018-06-27T07:20:58.003Z,62.12
2018-06-27T07:21:57.986Z,62.06
2018-06-27T07:22:57.993Z,62.41
2018-06-27T07:23:58.046Z,63.09
2018-06-27T07:24:58.027Z,62.90
2018-06-27T07:25:58.037Z,63.57
2018-06-27T07:26:58.050Z,62.41
2018-06-27T07:27:58.053Z,61.96
2018-06-27T07:28:58.126Z,62.32
2018-06-27T07:29:58.167Z,62.90
2018-06-27T07:30:58.104Z,61.07
2018-06-27T07:31:58.151Z,61.93
2018-06-27T07:32:58.146Z,62.22
2018-06-27T07:33:58.141Z,60.87
2018-06-27T07:34:58.228Z,61.74
2018-06-27T07:35:58.258Z,61.45
2018-06-27T07:36:58.185Z,61.45
2018-06-27T07:37:58.197Z,62.22
2018-06-27T07:38:58.237Z,61.83
2018-06-27T07:39:58.296Z,60.97
2018-06-27T07:40:58.229Z,60.58
2018-06-27T07:41:58.239Z,61.16
2018-06-27T07:42:58.267Z,60.10
2018-06-27T07:43:58.280Z,60.75
2018-06-27T07:44:58.376Z,59.88
2018-06-27T07:45:58.354Z,60.77
2018-06-27T07:46:58.347Z,60.94
2018-06-27T07:47:58.319Z,60.97
2018-06-27T07:48:58.336Z,60.39
2018-06-27T07:49:58.511Z,60.49
2018-06-27T07:50:58.408Z,60.39
2018-06-27T07:51:58.427Z,59.72
2018-06-27T07:52:58.391Z,61.35
2018-06-27T07:53:58.399Z,60.30
2018-06-27T07:54:58.419Z,60.39
2018-06-27T07:55:58.457Z,60.97
2018-06-27T07:56:58.452Z,60.30
2018-06-27T07:57:58.465Z,61.16
2018-06-27T07:58:58.459Z,60.77
2018-06-27T07:59:58.488Z,59.81
2018-06-27T08:00:58.584Z,59.62
2018-06-27T08:01:58.504Z,60.30
2018-06-27T08:02:58.521Z,59.81
2018-06-27T08:03:58.543Z,60.00
2018-06-27T08:04:58.557Z,60.10
2018-06-27T08:05:58.601Z,60.77
2018-06-27T08:06:58.742Z,59.91
2018-06-27T08:07:58.596Z,58.75
2018-06-27T08:08:58.606Z,59.04
2018-06-27T08:09:58.621Z,59.23
2018-06-27T08:10:58.655Z,59.04
2018-06-27T08:11:58.676Z,58.75
2018-06-27T08:12:58.726Z,59.43
2018-06-27T08:13:58.679Z,59.43
2018-06-27T08:14:58.677Z,59.04
2018-06-27T08:15:58.710Z,59.52
2018-06-27T08:16:58.712Z,59.62
2018-06-27T08:17:58.807Z,59.23
2018-06-27T08:18:58.749Z,58.08
2018-06-27T08:19:58.751Z,58.65
2018-06-27T08:20:58.769Z,57.98
2018-06-27T08:21:58.765Z,58.17
2018-06-27T08:22:58.838Z,57.40
2018-06-27T08:23:58.803Z,57.21
2018-06-27T08:24:58.820Z,57.40
2018-06-27T08:25:58.899Z,57.40
2018-06-27T08:26:59.543Z,57.02
2018-06-27T08:28:01.561Z,57.12
2018-06-27T08:28:58.970Z,57.60
2018-06-27T08:29:58.874Z,57.79
2018-06-27T08:30:58.900Z,57.40
2018-06-27T08:31:58.913Z,58.20
2018-06-27T08:32:58.943Z,57.24
2018-06-27T08:33:59.030Z,57.02
2018-06-27T08:34:58.960Z,56.76
2018-06-27T08:35:58.967Z,55.99
2018-06-27T08:36:58.981Z,56.27
2018-06-27T08:37:59.007Z,56.18
2018-06-27T08:38:59.048Z,56.09
2018-06-27T08:39:59.070Z,55.87
2018-06-27T08:40:59.018Z,57.05
2018-06-27T08:41:59.060Z,55.87
2018-06-27T08:42:59.067Z,55.99
2018-06-27T08:43:59.071Z,56.27
2018-06-27T08:44:59.159Z,56.76
2018-06-27T08:45:59.127Z,56.18
2018-06-27T08:46:59.126Z,54.80
2018-06-27T08:47:59.119Z,56.09
2018-06-27T08:48:59.224Z,56.18
2018-06-27T08:49:59.227Z,56.18
2018-06-27T08:50:59.158Z,55.99
2018-06-27T08:51:59.178Z,55.99
2018-06-27T08:52:59.206Z,56.95
2018-06-27T08:53:59.237Z,56.37
2018-06-27T08:54:59.267Z,55.99
2018-06-27T08:55:59.339Z,55.99
2018-06-27T08:56:59.237Z,56.09
2018-06-27T08:57:59.258Z,55.89
2018-06-27T08:58:59.267Z,55.31
2018-06-27T08:59:59.329Z,55.51
2018-06-27T09:00:59.320Z,55.51
2018-06-27T09:01:59.311Z,55.22
2018-06-27T09:02:59.328Z,55.99
2018-06-27T09:03:59.348Z,55.63
2018-06-27T09:04:59.357Z,55.34
2018-06-27T09:05:59.396Z,55.31
2018-06-27T09:06:59.412Z,55.41
2018-06-27T09:07:59.384Z,55.24
2018-06-27T09:08:59.418Z,53.61
2018-06-27T09:09:59.412Z,53.19
2018-06-27T09:10:59.455Z,53.58
2018-06-27T09:11:59.493Z,54.74
2018-06-27T09:12:59.464Z,53.87
2018-06-27T09:13:59.481Z,54.25
2018-06-27T09:14:59.567Z,54.57
2018-06-27T09:15:59.519Z,54.54
2018-06-27T09:16:59.524Z,54.96
2018-06-27T09:17:59.524Z,53.70
2018-06-27T09:18:59.555Z,53.61
2018-06-27T09:19:59.554Z,53.22
2018-06-27T09:20:59.727Z,53.70
2018-06-27T09:21:59.615Z,53.80
2018-06-27T09:22:59.593Z,53.61
2018-06-27T09:23:59.618Z,53.61
2018-06-27T09:24:59.631Z,54.76
2018-06-27T09:25:59.649Z,53.89
2018-06-27T09:26:59.672Z,54.09
2018-06-27T09:27:59.697Z,53.89
2018-06-27T09:28:59.671Z,53.89
2018-06-27T09:29:59.708Z,53.80
2018-06-27T09:30:59.698Z,53.77
2018-06-27T09:31:59.707Z,53.87
2018-06-27T09:32:59.770Z,54.18
2018-06-27T09:33:59.799Z,53.70
2018-06-27T09:34:59.764Z,53.70
2018-06-27T09:35:59.785Z,53.41
2018-06-27T09:36:59.816Z,53.61
2018-06-27T09:37:59.799Z,54.57
2018-06-27T09:38:59.844Z,54.66
2018-06-27T09:39:59.839Z,54.44
2018-06-27T09:40:59.888Z,54.93
2018-06-27T09:41:59.877Z,55.24
2018-06-27T09:42:59.857Z,54.38
2018-06-27T09:43:59.939Z,54.96
2018-06-27T09:44:59.924Z,55.24
2018-06-27T09:45:59.914Z,54.18
2018-06-27T09:46:59.923Z,54.18
2018-06-27T09:47:59.922Z,54.38
2018-06-27T09:48:59.995Z,54.38
2018-06-27T09:49:59.986Z,54.76
2018-06-27T09:50:59.965Z,54.47
2018-06-27T09:52:00.000Z,54.86
2018-06-27T09:53:00.028Z,54.76
2018-06-27T09:54:00.049Z,53.41
2018-06-27T09:55:00.064Z,53.70
2018-06-27T09:56:00.082Z,54.66
2018-06-27T09:57:00.100Z,53.61
2018-06-27T09:58:00.069Z,52.83
2018-06-27T09:59:00.092Z,52.64
2018-06-27T10:00:00.111Z,52.95
2018-06-27T10:01:00.174Z,52.19
2018-06-27T10:02:00.131Z,51.41
2018-06-27T10:03:00.141Z,51.22
2018-06-27T10:04:00.142Z,51.12
2018-06-27T10:05:00.175Z,50.16
2018-06-27T10:06:00.227Z,50.35
2018-06-27T10:07:00.199Z,50.35
2018-06-27T10:08:00.210Z,50.64
2018-06-27T10:09:00.231Z,51.70
2018-06-27T10:10:00.260Z,50.74
2018-06-27T10:11:00.288Z,51.61
2018-06-27T10:12:00.301Z,50.74
2018-06-27T10:13:00.268Z,50.13
2018-06-27T10:14:00.295Z,49.75
2018-06-27T10:15:00.364Z,50.84
2018-06-27T10:16:00.327Z,50.84
2018-06-27T10:17:00.439Z,50.84
2018-06-27T10:18:00.361Z,51.03
2018-06-27T10:19:00.361Z,50.93
2018-06-27T10:20:00.377Z,49.58
2018-06-27T10:21:00.395Z,49.29
2018-06-27T10:22:00.471Z,49.29
2018-06-27T10:23:00.418Z,49.87
2018-06-27T10:24:00.461Z,50.47
2018-06-27T10:25:00.446Z,50.67
2018-06-27T10:26:00.470Z,49.70
2018-06-27T10:27:00.504Z,49.70
2018-06-27T10:28:00.549Z,49.32
2018-06-27T10:29:00.504Z,49.70
2018-06-27T10:30:00.520Z,49.12
2018-06-27T10:31:00.567Z,49.22
2018-06-27T10:32:00.580Z,48.44
2018-06-27T10:33:00.620Z,48.44
2018-06-27T10:34:00.593Z,48.83
2018-06-27T10:35:00.592Z,48.54
2018-06-27T10:36:00.614Z,49.32
2018-06-27T10:37:00.602Z,49.12
2018-06-27T10:38:00.668Z,49.22
2018-06-27T10:39:00.666Z,49.12
2018-06-27T10:40:00.672Z,49.22
2018-06-27T10:41:00.727Z,49.80
2018-06-27T10:42:00.731Z,49.80
2018-06-27T10:43:00.727Z,49.22
2018-06-27T10:44:00.714Z,49.12
2018-06-27T10:45:00.713Z,49.02
2018-06-27T10:46:00.736Z,49.51
2018-06-27T10:47:00.748Z,48.16
2018-06-27T10:48:00.812Z,48.64
2018-06-27T10:49:00.779Z,49.12
2018-06-27T10:50:00.788Z,49.41
2018-06-27T10:51:00.854Z,48.74
2018-06-27T10:52:00.851Z,49.02
2018-06-27T10:53:00.863Z,48.54
2018-06-27T10:54:00.852Z,47.58
2018-06-27T10:55:00.928Z,47.67
2018-06-27T10:56:00.871Z,48.64
2018-06-27T10:57:00.892Z,48.93
2018-06-27T10:58:00.920Z,47.87
2018-06-27T10:59:00.977Z,48.64
2018-06-27T11:00:00.943Z,48.16
2018-06-27T11:01:00.949Z,47.96
2018-06-27T11:02:00.966Z,48.16
2018-06-27T11:03:00.984Z,48.54
2018-06-27T11:04:01.041Z,48.06
2018-06-27T11:05:01.056Z,48.64
2018-06-27T11:06:01.018Z,48.83
2018-06-27T11:07:01.021Z,48.35
2018-06-27T11:08:01.056Z,49.02
2018-06-27T11:09:01.074Z,49.12
2018-06-27T11:10:01.125Z,47.77
2018-06-27T11:11:01.098Z,46.81
2018-06-27T11:12:01.127Z,46.90
2018-06-27T11:13:01.143Z,46.33
2018-06-27T11:14:01.160Z,47.58
2018-06-27T11:15:01.171Z,47.96
2018-06-27T11:16:01.149Z,47.77
2018-06-27T11:17:01.169Z,47.67
2018-06-27T11:18:01.183Z,46.61
2018-06-27T11:19:01.196Z,46.71
2018-06-27T11:20:01.250Z,46.61
2018-06-27T11:21:01.242Z,46.61
2018-06-27T11:22:01.234Z,47.22
2018-06-27T11:23:01.249Z,47.31
2018-06-27T11:24:01.280Z,46.54
2018-06-27T11:25:01.336Z,47.22
2018-06-27T11:26:01.294Z,47.31
2018-06-27T11:27:01.313Z,47.02
2018-06-27T11:28:01.330Z,46.34
2018-06-27T11:29:01.345Z,45.96
2018-06-27T11:30:01.418Z,46.83
2018-06-27T11:31:01.388Z,46.54
2018-06-27T11:32:01.387Z,47.80
2018-06-27T11:33:01.410Z,46.54
2018-06-27T11:34:01.408Z,46.34
2018-06-27T11:35:01.465Z,46.64
2018-06-27T11:36:01.469Z,47.22
2018-06-27T11:37:01.447Z,46.64
2018-06-27T11:38:01.531Z,46.15
2018-06-27T11:39:01.494Z,46.64
2018-06-27T11:40:01.486Z,46.64
2018-06-27T11:41:01.502Z,45.67
2018-06-27T11:42:01.525Z,46.64
2018-06-27T11:43:01.593Z,45.67
2018-06-27T11:44:01.556Z,46.25
2018-06-27T11:45:02.594Z,46.64
2018-06-27T11:46:01.572Z,45.76
2018-06-27T11:47:01.641Z,45.38
2018-06-27T11:48:01.662Z,45.67
2018-06-27T11:49:01.625Z,46.34
2018-06-27T11:50:01.636Z,46.73
2018-06-27T11:51:01.678Z,46.25
2018-06-27T11:52:01.688Z,46.73
2018-06-27T11:53:01.731Z,46.34
2018-06-27T11:54:01.702Z,46.44
2018-06-27T11:55:01.807Z,46.73
2018-06-27T11:56:01.761Z,46.56
2018-06-27T11:57:01.737Z,45.18
2018-06-27T11:58:01.773Z,45.11
2018-06-27T11:59:01.772Z,45.00
2018-06-27T12:00:01.787Z,45.01
2018-06-27T12:01:01.836Z,44.05
2018-06-27T12:02:01.816Z,45.11
2018-06-27T12:03:01.831Z,45.11
2018-06-27T12:04:01.838Z,45.59
2018-06-27T12:05:01.860Z,45.89
2018-06-27T12:06:01.905Z,45.31
2018-06-27T12:07:01.877Z,44.53
2018-06-27T12:08:01.898Z,43.95
2018-06-27T12:09:01.978Z,43.66
2018-06-27T12:10:01.918Z,43.47
2018-06-27T12:11:01.988Z,43.37
2018-06-27T12:12:01.970Z,43.28
2018-06-27T12:13:01.976Z,43.37
2018-06-27T12:14:02.030Z,43.47
2018-06-27T12:15:01.997Z,43.18
2018-06-27T12:16:02.026Z,43.57
2018-06-27T12:17:02.210Z,43.85
2018-06-27T12:18:02.079Z,43.37
2018-06-27T12:19:02.048Z,43.37
2018-06-27T12:20:02.110Z,43.95
2018-06-27T12:21:02.122Z,43.95
2018-06-27T12:22:02.121Z,43.85
2018-06-27T12:23:02.161Z,43.85
2018-06-27T12:24:02.151Z,43.18
2018-06-27T12:25:02.155Z,43.37
2018-06-27T12:26:02.148Z,43.47
2018-06-27T12:27:02.217Z,43.78
2018-06-27T12:28:02.214Z,43.20
2018-06-27T12:29:02.203Z,42.72
2018-06-27T12:30:02.214Z,42.24
2018-06-27T12:31:02.264Z,42.33
2018-06-27T12:32:02.273Z,42.62
2018-06-27T12:33:02.261Z,42.04
2018-06-27T12:34:02.284Z,42.33
2018-06-27T12:35:02.300Z,42.72
2018-06-27T12:36:02.356Z,43.49
2018-06-27T12:37:02.323Z,43.68
2018-06-27T12:38:02.348Z,42.62
2018-06-27T12:39:02.386Z,41.66
2018-06-27T12:40:02.348Z,41.66
2018-06-27T12:41:02.407Z,42.04
2018-06-27T12:42:02.397Z,41.27
2018-06-27T12:43:02.447Z,40.78
2018-06-27T12:44:02.427Z,40.78
2018-06-27T12:45:02.427Z,41.36
2018-06-27T12:46:02.450Z,40.98
2018-06-27T12:47:02.539Z,40.88
2018-06-27T12:48:02.480Z,41.08
2018-06-27T12:49:02.502Z,40.88
2018-06-27T12:50:02.553Z,41.48
2018-06-27T12:51:02.524Z,41.39
2018-06-27T12:52:02.584Z,41.39
2018-06-27T12:53:02.542Z,41.77